Time,TemperatureF,DewpointF,PressureIn,WindDirection,WindDirectionDegrees,WindSpeedMPH,WindSpeedGustMPH,Humidity,HourlyPrecipIn,Conditions,Clouds,dailyrainin,SolarRadiationWatts/m^2,SoftwareType,DateUTC
2013-08-22 00:42:00,72.0,51.0,-100.00,North,355,1.0,5.0,47,0.00,,,0.00,0.000000,,2013-08-22 06:42:00,
2013-08-22 00:52:00,72.0,51.0,-100.00,North,355,1.0,5.0,47,0.00,,,0.00,0.000000,,2013-08-22 06:52:00,
2013-08-22 01:42:00,68.0,50.0,-100.00,SE,137,2.0,4.0,53,0.00,,,0.00,0.000000,,2013-08-22 07:42:00,
2013-08-22 01:52:00,68.0,50.0,-100.00,SE,137,2.0,4.0,53,0.00,,,0.00,0.000000,,2013-08-22 07:52:00,
2013-08-22 02:22:00,68.0,50.0,-100.00,NNE,19,5.0,7.0,52,0.00,,,0.00,0.000000,,2013-08-22 08:22:00,
2013-08-22 02:33:00,68.0,50.0,-100.00,NNE,19,5.0,7.0,52,0.00,,,0.00,0.000000,,2013-08-22 08:33:00,
2013-08-22 02:43:00,68.0,50.0,-100.00,NNE,19,5.0,7.0,52,0.00,,,0.00,0.000000,,2013-08-22 08:43:00,
2013-08-22 02:53:00,68.0,50.0,-100.00,NNE,19,5.0,7.0,52,0.00,,,0.00,0.000000,,2013-08-22 08:53:00,
2013-08-22 03:43:00,66.0,50.0,-100.00,NE,56,2.0,7.0,56,0.00,,,0.00,0.000000,,2013-08-22 09:43:00,
2013-08-22 03:53:00,66.0,50.0,-100.00,NE,56,2.0,7.0,56,0.00,,,0.00,0.000000,,2013-08-22 09:53:00,
2013-08-22 04:42:00,66.0,52.0,-100.00,ESE,119,3.0,6.0,61,0.00,,,0.00,0.000000,,2013-08-22 10:42:00,
2013-08-22 06:42:00,64.0,52.0,-100.00,NNW,336,1.0,6.0,64,0.00,,,0.00,0.000000,,2013-08-22 12:42:00,
2013-08-22 06:52:00,64.0,52.0,-100.00,NNW,336,1.0,6.0,64,0.00,,,0.00,0.000000,,2013-08-22 12:52:00,
2013-08-22 07:42:00,65.0,53.0,-100.00,NNW,345,3.0,5.0,64,0.00,,,0.00,4.000000,,2013-08-22 13:42:00,
2013-08-22 07:52:00,65.0,53.0,-100.00,NNW,345,3.0,5.0,64,0.00,,,0.00,4.000000,,2013-08-22 13:52:00,
2013-08-22 08:42:00,66.0,54.0,-100.00,NE,48,5.0,6.0,66,0.00,,,0.00,29.000000,,2013-08-22 14:42:00,
2013-08-22 08:52:00,66.0,54.0,-100.00,NE,48,5.0,6.0,66,0.00,,,0.00,29.000000,,2013-08-22 14:52:00,
2013-08-22 09:43:00,66.0,55.0,-100.00,WSW,243,3.0,6.0,68,0.00,,,0.00,45.000000,,2013-08-22 15:43:00,
2013-08-22 09:54:00,66.0,55.0,-100.00,WSW,243,3.0,6.0,68,0.00,,,0.00,45.000000,,2013-08-22 15:54:00,
2013-08-22 10:43:00,68.0,54.0,-100.00,WNW,290,5.0,7.0,61,0.00,,,0.00,167.000000,,2013-08-22 16:43:00,
2013-08-22 10:53:00,68.0,54.0,-100.00,WNW,290,5.0,7.0,61,0.00,,,0.00,167.000000,,2013-08-22 16:53:00,
2013-08-22 11:24:00,71.0,55.0,-100.00,ESE,102,2.0,5.0,58,0.00,,,0.00,204.000000,,2013-08-22 17:24:00,
2013-08-22 11:33:00,71.0,55.0,-100.00,ESE,102,2.0,5.0,58,0.00,,,0.00,204.000000,,2013-08-22 17:33:00,
2013-08-22 11:43:00,71.0,55.0,-100.00,ESE,102,2.0,5.0,58,0.00,,,0.00,204.000000,,2013-08-22 17:43:00,
2013-08-22 11:52:00,71.0,55.0,-100.00,ESE,102,2.0,5.0,58,0.00,,,0.00,204.000000,,2013-08-22 17:52:00,
2013-08-22 12:43:00,80.0,55.0,-100.00,West,280,5.0,8.0,42,0.00,,,0.00,658.000000,,2013-08-22 18:43:00,
2013-08-22 12:52:00,80.0,55.0,-100.00,West,280,5.0,8.0,42,0.00,,,0.00,658.000000,,2013-08-22 18:52:00,
2013-08-22 13:22:00,86.0,57.0,-100.00,WNW,295,5.0,12.0,38,0.00,,,0.00,756.000000,,2013-08-22 19:22:00,
2013-08-22 13:32:00,86.0,57.0,-100.00,WNW,295,5.0,12.0,38,0.00,,,0.00,756.000000,,2013-08-22 19:32:00,
2013-08-22 13:42:00,86.0,57.0,-100.00,WNW,295,5.0,12.0,38,0.00,,,0.00,756.000000,,2013-08-22 19:42:00,
2013-08-22 13:53:00,86.0,57.0,-100.00,WNW,295,5.0,12.0,38,0.00,,,0.00,756.000000,,2013-08-22 19:53:00,
2013-08-22 14:23:00,88.0,57.0,-100.00,NNW,327,6.0,14.0,35,0.00,,,0.00,775.000000,,2013-08-22 20:23:00,
2013-08-22 14:32:00,88.0,57.0,-100.00,NNW,327,6.0,14.0,35,0.00,,,0.00,775.000000,,2013-08-22 20:32:00,
2013-08-22 14:42:00,88.0,57.0,-100.00,NNW,327,6.0,14.0,35,0.00,,,0.00,775.000000,,2013-08-22 20:42:00,
2013-08-22 14:52:00,88.0,57.0,-100.00,NNW,327,6.0,14.0,35,0.00,,,0.00,775.000000,,2013-08-22 20:52:00,
2013-08-22 15:22:00,92.0,57.0,-100.00,West,272,6.0,13.0,31,0.00,,,0.00,736.000000,,2013-08-22 21:22:00,
2013-08-22 15:34:00,92.0,57.0,-100.00,West,272,6.0,13.0,31,0.00,,,0.00,736.000000,,2013-08-22 21:34:00,
2013-08-22 15:44:00,92.0,57.0,-100.00,West,272,6.0,13.0,31,0.00,,,0.00,736.000000,,2013-08-22 21:44:00,
2013-08-22 15:54:00,92.0,57.0,-100.00,West,272,6.0,13.0,31,0.00,,,0.00,736.000000,,2013-08-22 21:54:00,
2013-08-22 16:24:00,93.0,55.0,-100.00,WSW,241,4.0,10.0,28,0.00,,,0.00,647.000000,,2013-08-22 22:24:00,
2013-08-22 16:34:00,93.0,55.0,-100.00,WSW,241,4.0,10.0,28,0.00,,,0.00,647.000000,,2013-08-22 22:34:00,
2013-08-22 16:42:00,93.0,55.0,-100.00,WSW,241,4.0,10.0,28,0.00,,,0.00,647.000000,,2013-08-22 22:42:00,
2013-08-22 16:53:00,93.0,55.0,-100.00,WSW,241,4.0,10.0,28,0.00,,,0.00,647.000000,,2013-08-22 22:53:00,
2013-08-22 17:22:00,95.0,54.0,-100.00,NW,308,5.0,11.0,25,0.00,,,0.00,549.000000,,2013-08-22 23:22:00,
2013-08-22 17:33:00,95.0,54.0,-100.00,NW,308,5.0,11.0,25,0.00,,,0.00,549.000000,,2013-08-22 23:33:00,
2013-08-22 17:42:00,95.0,54.0,-100.00,NW,308,5.0,11.0,25,0.00,,,0.00,549.000000,,2013-08-22 23:42:00,
2013-08-22 17:52:00,95.0,54.0,-100.00,NW,308,5.0,11.0,25,0.00,,,0.00,549.000000,,2013-08-22 23:52:00,
2013-08-22 18:23:00,90.0,52.0,-100.00,NE,55,5.0,12.0,28,0.00,,,-99.99,163.000000,,2013-08-23 00:23:00,
2013-08-22 18:33:00,90.0,52.0,-100.00,NE,55,5.0,12.0,28,0.00,,,-99.99,163.000000,,2013-08-23 00:33:00,
2013-08-22 18:42:00,90.0,52.0,-100.00,NE,55,5.0,12.0,28,0.00,,,-99.99,163.000000,,2013-08-23 00:42:00,
2013-08-22 18:52:00,90.0,52.0,-100.00,NE,55,5.0,12.0,28,0.00,,,-99.99,163.000000,,2013-08-23 00:52:00,
2013-08-22 19:21:00,88.0,52.0,-100.00,ENE,75,7.0,11.0,29,0.00,,,0.00,106.000000,,2013-08-23 01:21:00,
2013-08-22 19:33:00,88.0,52.0,-100.00,ENE,75,7.0,11.0,29,0.00,,,0.00,106.000000,,2013-08-23 01:33:00,
2013-08-22 19:42:00,88.0,52.0,-100.00,ENE,75,7.0,11.0,29,0.00,,,0.00,106.000000,,2013-08-23 01:42:00,
2013-08-22 19:52:00,88.0,52.0,-100.00,ENE,75,7.0,11.0,29,0.00,,,0.00,106.000000,,2013-08-23 01:52:00,
2013-08-22 20:22:00,85.0,51.0,-100.00,ENE,73,7.0,10.0,31,0.00,,,0.00,28.000000,,2013-08-23 02:22:00,
2013-08-22 20:32:00,85.0,51.0,-100.00,ENE,73,7.0,10.0,31,0.00,,,0.00,28.000000,,2013-08-23 02:32:00,
2013-08-22 20:42:00,85.0,51.0,-100.00,ENE,73,7.0,10.0,31,0.00,,,0.00,28.000000,,2013-08-23 02:42:00,
2013-08-22 20:52:00,85.0,51.0,-100.00,ENE,73,7.0,10.0,31,0.00,,,0.00,28.000000,,2013-08-23 02:52:00,
2013-08-22 21:44:00,83.0,50.0,-100.00,ENE,78,10.0,14.0,32,0.00,,,0.00,1.000000,,2013-08-23 03:44:00,
2013-08-22 21:54:00,83.0,50.0,-100.00,ENE,78,10.0,14.0,32,0.00,,,0.00,1.000000,,2013-08-23 03:54:00,
2013-08-22 22:24:00,81.0,55.0,-100.00,SSE,150,8.0,16.0,41,0.00,,,0.00,0.000000,,2013-08-23 04:24:00,
2013-08-22 22:34:00,81.0,55.0,-100.00,SSE,150,8.0,16.0,41,0.00,,,0.00,0.000000,,2013-08-23 04:34:00,
2013-08-22 22:43:00,81.0,55.0,-100.00,SSE,150,8.0,16.0,41,0.00,,,0.00,0.000000,,2013-08-23 04:43:00,
2013-08-22 22:54:00,81.0,55.0,-100.00,SSE,150,8.0,16.0,41,0.00,,,0.00,0.000000,,2013-08-23 04:54:00,
2013-08-22 23:22:00,79.0,55.0,-100.00,SSE,148,7.0,13.0,43,0.00,,,0.00,0.000000,,2013-08-23 05:22:00,
2013-08-22 23:34:00,79.0,55.0,-100.00,SSE,148,7.0,13.0,43,0.00,,,0.00,0.000000,,2013-08-23 05:34:00,
2013-08-22 23:42:00,79.0,55.0,-100.00,SSE,148,7.0,13.0,43,0.00,,,0.00,0.000000,,2013-08-23 05:42:00,
2013-08-22 23:52:00,79.0,55.0,-100.00,SSE,148,7.0,13.0,43,0.00,,,0.00,0.000000,,2013-08-23 05:52:00,